sensor_id;sensor_type;location;lat;lon;timestamp;P1;durP1;ratioP1;P2;durP2;ratioP2
35644;SDS011;21764;52.042;6.830;2023-07-22T00:03:15;26.98;;;12.60;;
35644;SDS011;21764;52.042;6.830;2023-07-22T00:08:16;20.45;;;11.05;;
35644;SDS011;21764;52.042;6.830;2023-07-22T00:13:16;15.88;;;9.68;;
35644;SDS011;21764;52.042;6.830;2023-07-22T00:18:17;18.88;;;11.05;;
35644;SDS011;21764;52.042;6.830;2023-07-22T00:23:18;18.67;;;10.02;;
35644;SDS011;21764;52.042;6.830;2023-07-22T00:28:19;21.17;;;10.05;;
35644;SDS011;21764;52.042;6.830;2023-07-22T00:33:20;15.95;;;10.20;;
35644;SDS011;21764;52.042;6.830;2023-07-22T00:38:21;24.63;;;10.88;;
35644;SDS011;21764;52.042;6.830;2023-07-22T00:43:21;20.80;;;11.50;;
35644;SDS011;21764;52.042;6.830;2023-07-22T00:48:22;19.75;;;11.50;;
35644;SDS011;21764;52.042;6.830;2023-07-22T00:53:23;25.17;;;11.75;;
35644;SDS011;21764;52.042;6.830;2023-07-22T00:58:24;20.40;;;12.38;;
35644;SDS011;21764;52.042;6.830;2023-07-22T01:03:25;20.83;;;11.98;;
35644;SDS011;21764;52.042;6.830;2023-07-22T01:08:26;20.88;;;13.13;;
35644;SDS011;21764;52.042;6.830;2023-07-22T01:13:27;22.75;;;12.60;;
35644;SDS011;21764;52.042;6.830;2023-07-22T01:18:28;22.98;;;12.82;;
35644;SDS011;21764;52.042;6.830;2023-07-22T01:23:29;24.52;;;12.80;;
35644;SDS011;21764;52.042;6.830;2023-07-22T01:28:29;22.02;;;12.85;;
35644;SDS011;21764;52.042;6.830;2023-07-22T01:33:30;23.90;;;12.82;;
35644;SDS011;21764;52.042;6.830;2023-07-22T01:38:31;22.52;;;13.13;;
35644;SDS011;21764;52.042;6.830;2023-07-22T01:43:32;23.77;;;13.35;;
35644;SDS011;21764;52.042;6.830;2023-07-22T01:48:33;24.05;;;13.32;;
35644;SDS011;21764;52.042;6.830;2023-07-22T01:53:33;25.67;;;13.93;;
35644;SDS011;21764;52.042;6.830;2023-07-22T01:58:34;24.80;;;14.05;;
35644;SDS011;21764;52.042;6.830;2023-07-22T02:03:35;25.15;;;14.35;;
35644;SDS011;21764;52.042;6.830;2023-07-22T02:08:35;23.50;;;13.93;;
35644;SDS011;21764;52.042;6.830;2023-07-22T02:13:36;24.83;;;14.30;;
35644;SDS011;21764;52.042;6.830;2023-07-22T02:18:37;26.30;;;14.50;;
35644;SDS011;21764;52.042;6.830;2023-07-22T02:23:38;25.90;;;14.40;;
35644;SDS011;21764;52.042;6.830;2023-07-22T02:28:38;25.13;;;13.90;;
35644;SDS011;21764;52.042;6.830;2023-07-22T02:33:39;28.65;;;15.73;;
35644;SDS011;21764;52.042;6.830;2023-07-22T02:38:40;24.45;;;15.20;;
35644;SDS011;21764;52.042;6.830;2023-07-22T02:43:41;26.75;;;16.13;;
35644;SDS011;21764;52.042;6.830;2023-07-22T02:48:42;29.88;;;16.42;;
35644;SDS011;21764;52.042;6.830;2023-07-22T02:53:42;31.00;;;16.35;;
35644;SDS011;21764;52.042;6.830;2023-07-22T02:58:44;32.28;;;17.15;;
35644;SDS011;21764;52.042;6.830;2023-07-22T03:03:45;32.55;;;17.88;;
35644;SDS011;21764;52.042;6.830;2023-07-22T03:08:46;34.38;;;18.05;;
35644;SDS011;21764;52.042;6.830;2023-07-22T03:13:48;32.38;;;17.30;;
35644;SDS011;21764;52.042;6.830;2023-07-22T03:18:49;33.65;;;18.45;;
35644;SDS011;21764;52.042;6.830;2023-07-22T03:23:50;33.50;;;17.48;;
35644;SDS011;21764;52.042;6.830;2023-07-22T03:28:53;35.30;;;18.45;;
35644;SDS011;21764;52.042;6.830;2023-07-22T03:33:53;38.38;;;18.00;;
35644;SDS011;21764;52.042;6.830;2023-07-22T03:38:54;28.90;;;17.60;;
35644;SDS011;21764;52.042;6.830;2023-07-22T03:43:55;31.88;;;18.45;;
35644;SDS011;21764;52.042;6.830;2023-07-22T03:48:55;34.40;;;18.92;;
35644;SDS011;21764;52.042;6.830;2023-07-22T03:53:57;30.40;;;19.27;;
35644;SDS011;21764;52.042;6.830;2023-07-22T03:58:57;34.35;;;19.85;;
35644;SDS011;21764;52.042;6.830;2023-07-22T04:03:58;37.28;;;19.73;;
35644;SDS011;21764;52.042;6.830;2023-07-22T04:08:59;36.22;;;20.33;;
35644;SDS011;21764;52.042;6.830;2023-07-22T04:14:00;37.60;;;19.92;;
35644;SDS011;21764;52.042;6.830;2023-07-22T04:19:01;34.45;;;19.55;;
35644;SDS011;21764;52.042;6.830;2023-07-22T04:24:01;36.20;;;19.25;;
35644;SDS011;21764;52.042;6.830;2023-07-22T04:29:02;37.15;;;19.67;;
35644;SDS011;21764;52.042;6.830;2023-07-22T04:34:03;38.45;;;19.17;;
35644;SDS011;21764;52.042;6.830;2023-07-22T04:39:05;33.10;;;18.92;;
35644;SDS011;21764;52.042;6.830;2023-07-22T04:44:07;34.53;;;19.73;;
35644;SDS011;21764;52.042;6.830;2023-07-22T04:49:07;32.35;;;19.02;;
35644;SDS011;21764;52.042;6.830;2023-07-22T04:54:08;37.55;;;18.92;;
35644;SDS011;21764;52.042;6.830;2023-07-22T04:59:09;34.58;;;19.60;;
35644;SDS011;21764;52.042;6.830;2023-07-22T05:04:10;33.42;;;19.05;;
35644;SDS011;21764;52.042;6.830;2023-07-22T05:09:11;30.02;;;19.08;;
35644;SDS011;21764;52.042;6.830;2023-07-22T05:14:12;26.70;;;18.13;;
35644;SDS011;21764;52.042;6.830;2023-07-22T05:19:13;27.98;;;16.58;;
35644;SDS011;21764;52.042;6.830;2023-07-22T05:24:13;28.85;;;16.80;;
35644;SDS011;21764;52.042;6.830;2023-07-22T05:29:14;33.80;;;18.45;;
35644;SDS011;21764;52.042;6.830;2023-07-22T05:34:14;26.25;;;17.42;;
35644;SDS011;21764;52.042;6.830;2023-07-22T05:39:15;24.40;;;15.88;;
35644;SDS011;21764;52.042;6.830;2023-07-22T05:44:18;22.58;;;16.23;;
35644;SDS011;21764;52.042;6.830;2023-07-22T05:49:18;23.27;;;14.57;;
35644;SDS011;21764;52.042;6.830;2023-07-22T05:54:19;22.60;;;15.52;;
35644;SDS011;21764;52.042;6.830;2023-07-22T05:59:21;24.80;;;16.80;;
35644;SDS011;21764;52.042;6.830;2023-07-22T06:04:21;28.98;;;17.42;;
35644;SDS011;21764;52.042;6.830;2023-07-22T06:09:22;28.40;;;17.60;;
35644;SDS011;21764;52.042;6.830;2023-07-22T06:14:23;27.23;;;18.73;;
35644;SDS011;21764;52.042;6.830;2023-07-22T06:19:24;30.75;;;18.90;;
35644;SDS011;21764;52.042;6.830;2023-07-22T06:24:24;26.63;;;17.23;;
35644;SDS011;21764;52.042;6.830;2023-07-22T06:29:25;26.30;;;16.00;;
35644;SDS011;21764;52.042;6.830;2023-07-22T06:34:26;22.60;;;15.43;;
35644;SDS011;21764;52.042;6.830;2023-07-22T06:39:27;23.88;;;16.10;;
35644;SDS011;21764;52.042;6.830;2023-07-22T06:44:28;27.25;;;16.90;;
35644;SDS011;21764;52.042;6.830;2023-07-22T06:49:29;23.73;;;15.93;;
35644;SDS011;21764;52.042;6.830;2023-07-22T06:54:29;23.15;;;16.40;;
35644;SDS011;21764;52.042;6.830;2023-07-22T06:59:30;21.83;;;15.90;;
35644;SDS011;21764;52.042;6.830;2023-07-22T07:04:31;23.67;;;15.90;;
35644;SDS011;21764;52.042;6.830;2023-07-22T07:09:32;23.75;;;15.55;;
35644;SDS011;21764;52.042;6.830;2023-07-22T07:14:33;24.17;;;16.80;;
35644;SDS011;21764;52.042;6.830;2023-07-22T07:19:34;26.55;;;17.35;;
35644;SDS011;21764;52.042;6.830;2023-07-22T07:24:34;25.58;;;16.92;;
35644;SDS011;21764;52.042;6.830;2023-07-22T07:29:35;24.20;;;15.65;;
35644;SDS011;21764;52.042;6.830;2023-07-22T07:34:36;29.42;;;15.70;;
35644;SDS011;21764;52.042;6.830;2023-07-22T07:39:37;25.02;;;15.15;;
35644;SDS011;21764;52.042;6.830;2023-07-22T07:44:37;24.13;;;16.08;;
35644;SDS011;21764;52.042;6.830;2023-07-22T07:49:38;22.90;;;14.30;;
35644;SDS011;21764;52.042;6.830;2023-07-22T07:54:40;23.40;;;14.00;;
35644;SDS011;21764;52.042;6.830;2023-07-22T07:59:41;24.90;;;13.98;;
35644;SDS011;21764;52.042;6.830;2023-07-22T08:04:41;23.70;;;14.98;;
35644;SDS011;21764;52.042;6.830;2023-07-22T08:09:42;21.38;;;13.82;;
35644;SDS011;21764;52.042;6.830;2023-07-22T08:14:43;24.77;;;13.65;;
35644;SDS011;21764;52.042;6.830;2023-07-22T08:19:43;21.00;;;12.68;;
35644;SDS011;21764;52.042;6.830;2023-07-22T08:24:44;19.35;;;13.52;;
35644;SDS011;21764;52.042;6.830;2023-07-22T08:29:44;17.08;;;12.77;;
35644;SDS011;21764;52.042;6.830;2023-07-22T08:34:45;24.83;;;13.25;;
35644;SDS011;21764;52.042;6.830;2023-07-22T08:39:46;20.83;;;13.15;;
35644;SDS011;21764;52.042;6.830;2023-07-22T08:44:47;23.13;;;13.60;;
35644;SDS011;21764;52.042;6.830;2023-07-22T08:49:50;19.02;;;12.25;;
35644;SDS011;21764;52.042;6.830;2023-07-22T08:54:52;20.02;;;11.55;;
35644;SDS011;21764;52.042;6.830;2023-07-22T08:59:54;17.83;;;11.90;;
35644;SDS011;21764;52.042;6.830;2023-07-22T09:04:56;23.13;;;12.98;;
35644;SDS011;21764;52.042;6.830;2023-07-22T09:09:58;20.85;;;12.68;;
35644;SDS011;21764;52.042;6.830;2023-07-22T09:15:00;20.17;;;12.02;;
35644;SDS011;21764;52.042;6.830;2023-07-22T09:20:01;23.80;;;12.50;;
35644;SDS011;21764;52.042;6.830;2023-07-22T09:25:25;20.73;;;11.20;;
35644;SDS011;21764;52.042;6.830;2023-07-22T09:30:26;22.60;;;13.25;;
35644;SDS011;21764;52.042;6.830;2023-07-22T09:35:43;18.38;;;11.25;;
35644;SDS011;21764;52.042;6.830;2023-07-22T09:40:45;21.80;;;11.65;;
35644;SDS011;21764;52.042;6.830;2023-07-22T09:45:46;19.27;;;11.05;;
35644;SDS011;21764;52.042;6.830;2023-07-22T09:50:58;20.02;;;11.32;;
35644;SDS011;21764;52.042;6.830;2023-07-22T09:56:02;17.08;;;9.73;;
35644;SDS011;21764;52.042;6.830;2023-07-22T10:01:04;23.80;;;10.20;;
35644;SDS011;21764;52.042;6.830;2023-07-22T10:06:07;20.05;;;9.90;;
35644;SDS011;21764;52.042;6.830;2023-07-22T10:11:09;15.63;;;9.20;;
35644;SDS011;21764;52.042;6.830;2023-07-22T10:16:11;20.30;;;10.50;;
35644;SDS011;21764;52.042;6.830;2023-07-22T10:21:12;15.02;;;9.40;;
35644;SDS011;21764;52.042;6.830;2023-07-22T10:26:17;17.92;;;9.43;;
35644;SDS011;21764;52.042;6.830;2023-07-22T10:31:18;18.00;;;9.40;;
35644;SDS011;21764;52.042;6.830;2023-07-22T10:36:20;17.27;;;9.15;;
35644;SDS011;21764;52.042;6.830;2023-07-22T10:41:21;15.32;;;9.35;;
35644;SDS011;21764;52.042;6.830;2023-07-22T10:46:37;15.93;;;9.40;;
35644;SDS011;21764;52.042;6.830;2023-07-22T10:51:40;18.70;;;9.43;;
35644;SDS011;21764;52.042;6.830;2023-07-22T10:56:44;15.27;;;8.43;;
35644;SDS011;21764;52.042;6.830;2023-07-22T11:01:45;16.02;;;8.00;;
35644;SDS011;21764;52.042;6.830;2023-07-22T11:11:47;13.23;;;8.18;;
35644;SDS011;21764;52.042;6.830;2023-07-22T11:16:49;11.27;;;7.10;;
35644;SDS011;21764;52.042;6.830;2023-07-22T11:21:51;11.85;;;6.75;;
35644;SDS011;21764;52.042;6.830;2023-07-22T11:26:52;13.35;;;7.60;;
35644;SDS011;21764;52.042;6.830;2023-07-22T11:31:54;14.63;;;7.70;;
35644;SDS011;21764;52.042;6.830;2023-07-22T11:36:55;14.10;;;8.35;;
35644;SDS011;21764;52.042;6.830;2023-07-22T11:41:56;16.08;;;7.43;;
35644;SDS011;21764;52.042;6.830;2023-07-22T11:47:05;13.32;;;7.63;;
35644;SDS011;21764;52.042;6.830;2023-07-22T11:52:16;14.10;;;7.50;;
35644;SDS011;21764;52.042;6.830;2023-07-22T12:02:19;10.88;;;7.30;;
35644;SDS011;21764;52.042;6.830;2023-07-22T12:07:27;17.48;;;7.25;;
35644;SDS011;21764;52.042;6.830;2023-07-22T12:17:50;10.32;;;6.90;;
35644;SDS011;21764;52.042;6.830;2023-07-22T12:22:53;13.60;;;6.30;;
35644;SDS011;21764;52.042;6.830;2023-07-22T12:27:54;11.07;;;6.43;;
35644;SDS011;21764;52.042;6.830;2023-07-22T12:32:54;16.33;;;6.75;;
35644;SDS011;21764;52.042;6.830;2023-07-22T12:37:55;9.90;;;6.30;;
35644;SDS011;21764;52.042;6.830;2023-07-22T12:42:56;11.68;;;5.80;;
35644;SDS011;21764;52.042;6.830;2023-07-22T12:47:57;11.82;;;6.32;;
35644;SDS011;21764;52.042;6.830;2023-07-22T12:52:58;12.48;;;6.32;;
35644;SDS011;21764;52.042;6.830;2023-07-22T12:57:59;9.07;;;5.40;;
35644;SDS011;21764;52.042;6.830;2023-07-22T13:02:59;11.98;;;5.43;;
35644;SDS011;21764;52.042;6.830;2023-07-22T13:08:00;9.27;;;5.35;;
35644;SDS011;21764;52.042;6.830;2023-07-22T13:13:01;14.77;;;5.47;;
35644;SDS011;21764;52.042;6.830;2023-07-22T13:18:02;8.13;;;4.53;;
35644;SDS011;21764;52.042;6.830;2023-07-22T13:23:02;8.73;;;3.85;;
35644;SDS011;21764;52.042;6.830;2023-07-22T13:28:03;8.52;;;3.50;;
35644;SDS011;21764;52.042;6.830;2023-07-22T13:33:04;7.15;;;3.78;;
35644;SDS011;21764;52.042;6.830;2023-07-22T13:38:04;12.68;;;3.70;;
35644;SDS011;21764;52.042;6.830;2023-07-22T13:43:05;8.73;;;4.00;;
35644;SDS011;21764;52.042;6.830;2023-07-22T13:48:06;10.32;;;3.88;;
35644;SDS011;21764;52.042;6.830;2023-07-22T13:53:06;8.88;;;3.53;;
35644;SDS011;21764;52.042;6.830;2023-07-22T13:58:07;6.20;;;3.42;;
35644;SDS011;21764;52.042;6.830;2023-07-22T14:03:08;7.95;;;3.67;;
35644;SDS011;21764;52.042;6.830;2023-07-22T14:08:08;8.65;;;2.45;;
35644;SDS011;21764;52.042;6.830;2023-07-22T14:13:09;9.68;;;2.92;;
35644;SDS011;21764;52.042;6.830;2023-07-22T14:18:09;5.53;;;2.30;;
35644;SDS011;21764;52.042;6.830;2023-07-22T14:23:10;4.18;;;2.30;;
35644;SDS011;21764;52.042;6.830;2023-07-22T14:28:11;7.28;;;2.47;;
35644;SDS011;21764;52.042;6.830;2023-07-22T14:33:12;3.70;;;2.28;;
35644;SDS011;21764;52.042;6.830;2023-07-22T14:38:13;4.43;;;2.78;;
35644;SDS011;21764;52.042;6.830;2023-07-22T14:43:15;5.70;;;2.38;;
35644;SDS011;21764;52.042;6.830;2023-07-22T14:48:15;8.50;;;2.58;;
35644;SDS011;21764;52.042;6.830;2023-07-22T14:53:16;5.90;;;3.20;;
35644;SDS011;21764;52.042;6.830;2023-07-22T14:58:18;7.28;;;2.95;;
35644;SDS011;21764;52.042;6.830;2023-07-22T15:03:18;7.78;;;2.83;;
35644;SDS011;21764;52.042;6.830;2023-07-22T15:08:19;6.07;;;3.03;;
35644;SDS011;21764;52.042;6.830;2023-07-22T15:13:20;11.05;;;3.45;;
35644;SDS011;21764;52.042;6.830;2023-07-22T15:18:20;10.15;;;3.05;;
35644;SDS011;21764;52.042;6.830;2023-07-22T15:23:21;8.13;;;2.75;;
35644;SDS011;21764;52.042;6.830;2023-07-22T15:28:22;10.63;;;3.22;;
35644;SDS011;21764;52.042;6.830;2023-07-22T15:33:23;4.93;;;2.90;;
35644;SDS011;21764;52.042;6.830;2023-07-22T15:38:25;5.78;;;2.55;;
35644;SDS011;21764;52.042;6.830;2023-07-22T15:43:26;4.93;;;3.08;;
35644;SDS011;21764;52.042;6.830;2023-07-22T15:48:27;6.07;;;2.92;;
35644;SDS011;21764;52.042;6.830;2023-07-22T15:53:28;11.60;;;4.15;;
35644;SDS011;21764;52.042;6.830;2023-07-22T15:58:29;7.57;;;3.90;;
35644;SDS011;21764;52.042;6.830;2023-07-22T16:03:29;7.85;;;4.10;;
35644;SDS011;21764;52.042;6.830;2023-07-22T16:08:30;12.18;;;4.05;;
35644;SDS011;21764;52.042;6.830;2023-07-22T16:13:32;9.77;;;5.07;;
35644;SDS011;21764;52.042;6.830;2023-07-22T16:18:33;8.05;;;4.10;;
35644;SDS011;21764;52.042;6.830;2023-07-22T16:23:35;10.27;;;4.18;;
35644;SDS011;21764;52.042;6.830;2023-07-22T16:28:35;19.35;;;11.80;;
35644;SDS011;21764;52.042;6.830;2023-07-22T16:33:36;9.85;;;4.78;;
35644;SDS011;21764;52.042;6.830;2023-07-22T16:38:37;10.80;;;4.95;;
35644;SDS011;21764;52.042;6.830;2023-07-22T16:43:37;8.65;;;5.00;;
35644;SDS011;21764;52.042;6.830;2023-07-22T16:48:38;81.75;;;67.53;;
35644;SDS011;21764;52.042;6.830;2023-07-22T16:53:39;18.05;;;9.43;;
35644;SDS011;21764;52.042;6.830;2023-07-22T16:58:39;9.13;;;4.45;;
35644;SDS011;21764;52.042;6.830;2023-07-22T17:03:40;9.05;;;4.68;;
35644;SDS011;21764;52.042;6.830;2023-07-22T17:08:41;18.42;;;9.43;;
35644;SDS011;21764;52.042;6.830;2023-07-22T17:13:42;30.95;;;18.77;;
35644;SDS011;21764;52.042;6.830;2023-07-22T17:18:43;45.28;;;23.17;;
35644;SDS011;21764;52.042;6.830;2023-07-22T17:23:44;18.17;;;10.93;;
35644;SDS011;21764;52.042;6.830;2023-07-22T17:28:46;27.00;;;16.60;;
35644;SDS011;21764;52.042;6.830;2023-07-22T17:33:47;16.42;;;7.70;;
35644;SDS011;21764;52.042;6.830;2023-07-22T17:38:47;12.45;;;6.82;;
35644;SDS011;21764;52.042;6.830;2023-07-22T17:43:48;15.27;;;6.97;;
35644;SDS011;21764;52.042;6.830;2023-07-22T17:48:49;16.42;;;9.07;;
35644;SDS011;21764;52.042;6.830;2023-07-22T17:53:49;13.93;;;7.47;;
35644;SDS011;21764;52.042;6.830;2023-07-22T17:58:50;21.08;;;9.38;;
35644;SDS011;21764;52.042;6.830;2023-07-22T18:03:51;56.60;;;35.17;;
35644;SDS011;21764;52.042;6.830;2023-07-22T18:08:51;16.88;;;6.50;;
35644;SDS011;21764;52.042;6.830;2023-07-22T18:13:52;11.18;;;7.60;;
35644;SDS011;21764;52.042;6.830;2023-07-22T18:18:54;14.85;;;6.60;;
35644;SDS011;21764;52.042;6.830;2023-07-22T18:23:55;14.10;;;6.38;;
35644;SDS011;21764;52.042;6.830;2023-07-22T18:28:56;18.17;;;6.32;;
35644;SDS011;21764;52.042;6.830;2023-07-22T18:33:57;13.40;;;5.70;;
35644;SDS011;21764;52.042;6.830;2023-07-22T18:38:57;11.88;;;5.65;;
35644;SDS011;21764;52.042;6.830;2023-07-22T18:43:58;8.15;;;5.88;;
35644;SDS011;21764;52.042;6.830;2023-07-22T18:48:59;15.07;;;6.38;;
35644;SDS011;21764;52.042;6.830;2023-07-22T18:54:00;12.25;;;6.45;;
35644;SDS011;21764;52.042;6.830;2023-07-22T18:59:01;13.68;;;6.85;;
35644;SDS011;21764;52.042;6.830;2023-07-22T19:04:02;14.13;;;6.97;;
35644;SDS011;21764;52.042;6.830;2023-07-22T19:09:02;12.95;;;6.43;;
35644;SDS011;21764;52.042;6.830;2023-07-22T19:14:03;10.48;;;6.25;;
35644;SDS011;21764;52.042;6.830;2023-07-22T19:19:04;16.75;;;6.28;;
35644;SDS011;21764;52.042;6.830;2023-07-22T19:24:05;16.77;;;6.95;;
35644;SDS011;21764;52.042;6.830;2023-07-22T19:29:05;13.45;;;6.38;;
35644;SDS011;21764;52.042;6.830;2023-07-22T19:34:07;12.80;;;6.45;;
35644;SDS011;21764;52.042;6.830;2023-07-22T19:39:08;12.75;;;6.18;;
35644;SDS011;21764;52.042;6.830;2023-07-22T19:44:09;14.48;;;6.45;;
35644;SDS011;21764;52.042;6.830;2023-07-22T19:49:09;14.20;;;6.47;;
35644;SDS011;21764;52.042;6.830;2023-07-22T19:54:10;13.27;;;5.90;;
35644;SDS011;21764;52.042;6.830;2023-07-22T19:59:11;18.40;;;6.47;;
35644;SDS011;21764;52.042;6.830;2023-07-22T20:04:12;10.95;;;5.47;;
35644;SDS011;21764;52.042;6.830;2023-07-22T20:09:12;11.38;;;5.80;;
35644;SDS011;21764;52.042;6.830;2023-07-22T20:14:13;10.80;;;5.70;;
35644;SDS011;21764;52.042;6.830;2023-07-22T20:19:14;14.43;;;6.10;;
35644;SDS011;21764;52.042;6.830;2023-07-22T20:24:14;12.82;;;5.20;;
35644;SDS011;21764;52.042;6.830;2023-07-22T20:29:15;12.43;;;5.65;;
35644;SDS011;21764;52.042;6.830;2023-07-22T20:34:15;12.95;;;5.72;;
35644;SDS011;21764;52.042;6.830;2023-07-22T20:39:16;10.10;;;6.15;;
35644;SDS011;21764;52.042;6.830;2023-07-22T20:44:19;9.48;;;5.85;;
35644;SDS011;21764;52.042;6.830;2023-07-22T20:49:20;17.70;;;5.68;;
35644;SDS011;21764;52.042;6.830;2023-07-22T20:54:21;12.52;;;5.57;;
35644;SDS011;21764;52.042;6.830;2023-07-22T20:59:22;11.23;;;5.15;;
35644;SDS011;21764;52.042;6.830;2023-07-22T21:04:22;8.68;;;5.25;;
35644;SDS011;21764;52.042;6.830;2023-07-22T21:09:23;9.80;;;5.28;;
35644;SDS011;21764;52.042;6.830;2023-07-22T21:14:24;8.48;;;5.32;;
35644;SDS011;21764;52.042;6.830;2023-07-22T21:19:25;13.23;;;6.53;;
35644;SDS011;21764;52.042;6.830;2023-07-22T21:24:26;10.20;;;6.22;;
35644;SDS011;21764;52.042;6.830;2023-07-22T21:29:27;17.33;;;6.50;;
35644;SDS011;21764;52.042;6.830;2023-07-22T21:34:27;9.63;;;5.18;;
35644;SDS011;21764;52.042;6.830;2023-07-22T21:39:28;13.93;;;5.90;;
35644;SDS011;21764;52.042;6.830;2023-07-22T21:44:31;13.75;;;6.00;;
35644;SDS011;21764;52.042;6.830;2023-07-22T21:49:31;13.02;;;6.88;;
35644;SDS011;21764;52.042;6.830;2023-07-22T21:54:32;12.82;;;7.13;;
35644;SDS011;21764;52.042;6.830;2023-07-22T21:59:34;14.95;;;7.25;;
35644;SDS011;21764;52.042;6.830;2023-07-22T22:04:34;14.95;;;7.68;;
35644;SDS011;21764;52.042;6.830;2023-07-22T22:09:35;13.93;;;7.70;;
35644;SDS011;21764;52.042;6.830;2023-07-22T22:14:36;14.55;;;7.63;;
35644;SDS011;21764;52.042;6.830;2023-07-22T22:19:36;16.00;;;7.85;;
35644;SDS011;21764;52.042;6.830;2023-07-22T22:24:37;14.63;;;7.90;;
35644;SDS011;21764;52.042;6.830;2023-07-22T22:29:37;14.80;;;7.78;;
35644;SDS011;21764;52.042;6.830;2023-07-22T22:34:38;14.70;;;7.70;;
35644;SDS011;21764;52.042;6.830;2023-07-22T22:39:39;14.20;;;8.32;;
35644;SDS011;21764;52.042;6.830;2023-07-22T22:44:40;14.82;;;8.10;;
35644;SDS011;21764;52.042;6.830;2023-07-22T22:49:40;19.42;;;8.40;;
35644;SDS011;21764;52.042;6.830;2023-07-22T22:54:41;18.20;;;9.38;;
35644;SDS011;21764;52.042;6.830;2023-07-22T22:59:42;12.88;;;7.93;;
35644;SDS011;21764;52.042;6.830;2023-07-22T23:04:42;19.33;;;11.20;;
35644;SDS011;21764;52.042;6.830;2023-07-22T23:09:43;17.08;;;9.65;;
35644;SDS011;21764;52.042;6.830;2023-07-22T23:14:44;15.52;;;9.05;;
35644;SDS011;21764;52.042;6.830;2023-07-22T23:19:48;16.30;;;9.30;;
35644;SDS011;21764;52.042;6.830;2023-07-22T23:24:49;16.40;;;9.48;;
35644;SDS011;21764;52.042;6.830;2023-07-22T23:29:50;13.85;;;9.40;;
35644;SDS011;21764;52.042;6.830;2023-07-22T23:34:51;18.70;;;9.68;;
35644;SDS011;21764;52.042;6.830;2023-07-22T23:39:53;12.82;;;9.60;;
35644;SDS011;21764;52.042;6.830;2023-07-22T23:44:53;12.88;;;8.73;;
35644;SDS011;21764;52.042;6.830;2023-07-22T23:49:54;17.98;;;9.43;;
35644;SDS011;21764;52.042;6.830;2023-07-22T23:54:55;16.45;;;9.25;;
35644;SDS011;21764;52.042;6.830;2023-07-22T23:59:55;17.52;;;10.88;;
